sensor_id;sensor_type;location;lat;lon;timestamp;P1;durP1;ratioP1;P2;durP2;ratioP2
15340;SDS011;7770;52.158;5.372;2023-12-20T00:00:42;19.03;;;4.63;;
15340;SDS011;7770;52.158;5.372;2023-12-20T00:03:28;27.20;;;4.93;;
15340;SDS011;7770;52.158;5.372;2023-12-20T00:06:14;18.10;;;4.50;;
15340;SDS011;7770;52.158;5.372;2023-12-20T00:08:59;19.47;;;4.73;;
15340;SDS011;7770;52.158;5.372;2023-12-20T00:11:45;18.53;;;4.97;;
15340;SDS011;7770;52.158;5.372;2023-12-20T00:14:31;18.43;;;4.67;;
15340;SDS011;7770;52.158;5.372;2023-12-20T00:17:17;15.70;;;4.43;;
15340;SDS011;7770;52.158;5.372;2023-12-20T00:20:03;18.60;;;4.90;;
15340;SDS011;7770;52.158;5.372;2023-12-20T00:22:49;18.37;;;4.93;;
15340;SDS011;7770;52.158;5.372;2023-12-20T00:25:35;16.73;;;4.40;;
15340;SDS011;7770;52.158;5.372;2023-12-20T00:28:21;18.50;;;4.87;;
15340;SDS011;7770;52.158;5.372;2023-12-20T00:31:06;16.67;;;4.20;;
15340;SDS011;7770;52.158;5.372;2023-12-20T00:33:52;17.97;;;3.90;;
15340;SDS011;7770;52.158;5.372;2023-12-20T00:36:38;16.50;;;4.40;;
15340;SDS011;7770;52.158;5.372;2023-12-20T00:39:24;13.93;;;3.83;;
15340;SDS011;7770;52.158;5.372;2023-12-20T00:42:10;19.67;;;4.57;;
15340;SDS011;7770;52.158;5.372;2023-12-20T00:44:56;15.93;;;4.40;;
15340;SDS011;7770;52.158;5.372;2023-12-20T00:47:41;18.87;;;4.97;;
15340;SDS011;7770;52.158;5.372;2023-12-20T00:50:27;18.90;;;4.30;;
15340;SDS011;7770;52.158;5.372;2023-12-20T00:53:13;21.40;;;4.73;;
15340;SDS011;7770;52.158;5.372;2023-12-20T00:55:59;19.43;;;5.13;;
15340;SDS011;7770;52.158;5.372;2023-12-20T00:58:45;15.17;;;4.70;;
15340;SDS011;7770;52.158;5.372;2023-12-20T01:01:30;18.73;;;4.40;;
15340;SDS011;7770;52.158;5.372;2023-12-20T01:04:18;15.77;;;4.23;;
15340;SDS011;7770;52.158;5.372;2023-12-20T01:07:04;15.47;;;4.30;;
15340;SDS011;7770;52.158;5.372;2023-12-20T01:09:50;19.80;;;4.60;;
15340;SDS011;7770;52.158;5.372;2023-12-20T01:12:36;17.37;;;4.43;;
15340;SDS011;7770;52.158;5.372;2023-12-20T01:15:22;15.47;;;4.47;;
15340;SDS011;7770;52.158;5.372;2023-12-20T01:18:08;20.53;;;4.53;;
15340;SDS011;7770;52.158;5.372;2023-12-20T01:20:54;16.43;;;4.87;;
15340;SDS011;7770;52.158;5.372;2023-12-20T01:23:40;25.07;;;5.63;;
15340;SDS011;7770;52.158;5.372;2023-12-20T01:26:25;16.30;;;4.30;;
15340;SDS011;7770;52.158;5.372;2023-12-20T01:29:11;24.37;;;5.43;;
15340;SDS011;7770;52.158;5.372;2023-12-20T01:31:58;17.60;;;4.40;;
15340;SDS011;7770;52.158;5.372;2023-12-20T01:34:44;19.47;;;5.07;;
15340;SDS011;7770;52.158;5.372;2023-12-20T01:37:30;18.83;;;4.73;;
15340;SDS011;7770;52.158;5.372;2023-12-20T01:40:15;15.47;;;4.10;;
15340;SDS011;7770;52.158;5.372;2023-12-20T01:43:02;18.10;;;4.57;;
15340;SDS011;7770;52.158;5.372;2023-12-20T01:45:53;18.47;;;5.03;;
15340;SDS011;7770;52.158;5.372;2023-12-20T01:48:42;17.97;;;4.60;;
15340;SDS011;7770;52.158;5.372;2023-12-20T01:51:28;20.80;;;4.87;;
15340;SDS011;7770;52.158;5.372;2023-12-20T01:54:14;16.07;;;4.77;;
15340;SDS011;7770;52.158;5.372;2023-12-20T01:57:01;19.83;;;4.87;;
15340;SDS011;7770;52.158;5.372;2023-12-20T01:59:48;18.73;;;4.93;;
15340;SDS011;7770;52.158;5.372;2023-12-20T02:02:34;19.07;;;5.10;;
15340;SDS011;7770;52.158;5.372;2023-12-20T02:05:24;20.40;;;5.30;;
15340;SDS011;7770;52.158;5.372;2023-12-20T02:08:11;14.90;;;5.03;;
15340;SDS011;7770;52.158;5.372;2023-12-20T02:10:56;16.07;;;4.60;;
15340;SDS011;7770;52.158;5.372;2023-12-20T02:13:43;15.47;;;4.77;;
15340;SDS011;7770;52.158;5.372;2023-12-20T02:16:29;20.60;;;5.13;;
15340;SDS011;7770;52.158;5.372;2023-12-20T02:19:15;20.53;;;5.43;;
15340;SDS011;7770;52.158;5.372;2023-12-20T02:22:09;19.80;;;5.17;;
15340;SDS011;7770;52.158;5.372;2023-12-20T02:24:55;19.27;;;5.00;;
15340;SDS011;7770;52.158;5.372;2023-12-20T02:27:41;22.10;;;5.67;;
15340;SDS011;7770;52.158;5.372;2023-12-20T02:30:27;19.83;;;5.60;;
15340;SDS011;7770;52.158;5.372;2023-12-20T02:33:13;22.77;;;5.20;;
15340;SDS011;7770;52.158;5.372;2023-12-20T02:36:00;25.17;;;6.10;;
15340;SDS011;7770;52.158;5.372;2023-12-20T02:38:46;25.03;;;5.90;;
15340;SDS011;7770;52.158;5.372;2023-12-20T02:41:32;27.43;;;6.27;;
15340;SDS011;7770;52.158;5.372;2023-12-20T02:44:18;22.23;;;5.60;;
15340;SDS011;7770;52.158;5.372;2023-12-20T02:47:04;19.87;;;6.00;;
15340;SDS011;7770;52.158;5.372;2023-12-20T02:49:50;18.40;;;5.43;;
15340;SDS011;7770;52.158;5.372;2023-12-20T02:52:39;21.93;;;6.33;;
15340;SDS011;7770;52.158;5.372;2023-12-20T02:55:25;27.43;;;6.00;;
15340;SDS011;7770;52.158;5.372;2023-12-20T02:58:10;19.27;;;5.30;;
15340;SDS011;7770;52.158;5.372;2023-12-20T03:00:56;17.07;;;5.83;;
15340;SDS011;7770;52.158;5.372;2023-12-20T03:03:42;18.93;;;5.53;;
15340;SDS011;7770;52.158;5.372;2023-12-20T03:06:28;26.77;;;6.27;;
15340;SDS011;7770;52.158;5.372;2023-12-20T03:09:14;25.50;;;6.30;;
15340;SDS011;7770;52.158;5.372;2023-12-20T03:12:00;20.50;;;5.50;;
15340;SDS011;7770;52.158;5.372;2023-12-20T03:14:45;21.40;;;5.43;;
15340;SDS011;7770;52.158;5.372;2023-12-20T03:17:31;30.20;;;6.10;;
15340;SDS011;7770;52.158;5.372;2023-12-20T03:20:17;15.87;;;5.70;;
15340;SDS011;7770;52.158;5.372;2023-12-20T03:23:03;22.07;;;6.07;;
15340;SDS011;7770;52.158;5.372;2023-12-20T03:25:49;19.10;;;5.57;;
15340;SDS011;7770;52.158;5.372;2023-12-20T03:28:38;25.57;;;6.30;;
15340;SDS011;7770;52.158;5.372;2023-12-20T03:31:24;19.07;;;5.17;;
15340;SDS011;7770;52.158;5.372;2023-12-20T03:34:09;21.77;;;5.70;;
15340;SDS011;7770;52.158;5.372;2023-12-20T03:36:55;23.70;;;6.07;;
15340;SDS011;7770;52.158;5.372;2023-12-20T03:39:41;26.20;;;5.50;;
15340;SDS011;7770;52.158;5.372;2023-12-20T03:42:27;21.80;;;5.33;;
15340;SDS011;7770;52.158;5.372;2023-12-20T03:45:13;22.90;;;5.77;;
15340;SDS011;7770;52.158;5.372;2023-12-20T03:47:59;23.63;;;6.37;;
15340;SDS011;7770;52.158;5.372;2023-12-20T03:50:45;18.53;;;5.53;;
15340;SDS011;7770;52.158;5.372;2023-12-20T03:53:31;19.13;;;5.67;;
15340;SDS011;7770;52.158;5.372;2023-12-20T03:56:16;24.27;;;6.17;;
15340;SDS011;7770;52.158;5.372;2023-12-20T03:59:02;31.47;;;6.53;;
15340;SDS011;7770;52.158;5.372;2023-12-20T04:01:48;26.50;;;5.57;;
15340;SDS011;7770;52.158;5.372;2023-12-20T04:04:34;24.57;;;5.73;;
15340;SDS011;7770;52.158;5.372;2023-12-20T04:07:20;19.10;;;4.87;;
15340;SDS011;7770;52.158;5.372;2023-12-20T04:10:06;21.40;;;5.23;;
15340;SDS011;7770;52.158;5.372;2023-12-20T04:12:53;19.10;;;4.80;;
15340;SDS011;7770;52.158;5.372;2023-12-20T04:15:40;21.83;;;5.27;;
15340;SDS011;7770;52.158;5.372;2023-12-20T04:18:26;17.97;;;4.80;;
15340;SDS011;7770;52.158;5.372;2023-12-20T04:21:13;22.37;;;5.63;;
15340;SDS011;7770;52.158;5.372;2023-12-20T04:23:59;20.57;;;5.20;;
15340;SDS011;7770;52.158;5.372;2023-12-20T04:26:45;22.03;;;5.70;;
15340;SDS011;7770;52.158;5.372;2023-12-20T04:29:31;17.73;;;4.60;;
15340;SDS011;7770;52.158;5.372;2023-12-20T04:32:17;24.00;;;5.60;;
15340;SDS011;7770;52.158;5.372;2023-12-20T04:35:03;24.47;;;5.87;;
15340;SDS011;7770;52.158;5.372;2023-12-20T04:37:49;19.17;;;5.60;;
15340;SDS011;7770;52.158;5.372;2023-12-20T04:40:35;20.80;;;5.77;;
15340;SDS011;7770;52.158;5.372;2023-12-20T04:43:21;22.77;;;5.40;;
15340;SDS011;7770;52.158;5.372;2023-12-20T04:46:07;16.10;;;5.57;;
15340;SDS011;7770;52.158;5.372;2023-12-20T04:48:52;20.70;;;5.87;;
15340;SDS011;7770;52.158;5.372;2023-12-20T04:55:19;18.10;;;6.10;;
15340;SDS011;7770;52.158;5.372;2023-12-20T04:58:05;18.90;;;5.00;;
15340;SDS011;7770;52.158;5.372;2023-12-20T05:00:51;22.97;;;5.60;;
15340;SDS011;7770;52.158;5.372;2023-12-20T05:03:37;20.63;;;5.57;;
15340;SDS011;7770;52.158;5.372;2023-12-20T05:06:23;21.23;;;5.07;;
15340;SDS011;7770;52.158;5.372;2023-12-20T05:09:10;17.57;;;5.00;;
15340;SDS011;7770;52.158;5.372;2023-12-20T05:11:55;15.97;;;5.07;;
15340;SDS011;7770;52.158;5.372;2023-12-20T05:14:41;19.27;;;5.37;;
15340;SDS011;7770;52.158;5.372;2023-12-20T05:17:27;16.07;;;5.37;;
15340;SDS011;7770;52.158;5.372;2023-12-20T05:20:13;21.27;;;5.33;;
15340;SDS011;7770;52.158;5.372;2023-12-20T05:22:59;19.73;;;5.20;;
15340;SDS011;7770;52.158;5.372;2023-12-20T05:25:45;17.00;;;4.70;;
15340;SDS011;7770;52.158;5.372;2023-12-20T05:28:30;21.30;;;5.03;;
15340;SDS011;7770;52.158;5.372;2023-12-20T05:31:16;18.93;;;5.20;;
15340;SDS011;7770;52.158;5.372;2023-12-20T05:34:02;19.27;;;5.10;;
15340;SDS011;7770;52.158;5.372;2023-12-20T05:36:48;14.37;;;4.80;;
15340;SDS011;7770;52.158;5.372;2023-12-20T05:39:34;20.80;;;5.10;;
15340;SDS011;7770;52.158;5.372;2023-12-20T05:42:20;21.87;;;5.63;;
15340;SDS011;7770;52.158;5.372;2023-12-20T05:45:05;15.70;;;5.10;;
15340;SDS011;7770;52.158;5.372;2023-12-20T05:47:51;20.67;;;5.90;;
15340;SDS011;7770;52.158;5.372;2023-12-20T05:50:37;16.63;;;4.70;;
15340;SDS011;7770;52.158;5.372;2023-12-20T05:53:24;20.70;;;4.83;;
15340;SDS011;7770;52.158;5.372;2023-12-20T05:56:10;20.10;;;4.93;;
15340;SDS011;7770;52.158;5.372;2023-12-20T05:58:56;14.27;;;4.80;;
15340;SDS011;7770;52.158;5.372;2023-12-20T06:01:42;18.73;;;4.97;;
15340;SDS011;7770;52.158;5.372;2023-12-20T06:04:28;13.23;;;4.40;;
15340;SDS011;7770;52.158;5.372;2023-12-20T06:07:14;16.53;;;5.07;;
15340;SDS011;7770;52.158;5.372;2023-12-20T06:10:02;21.20;;;5.27;;
15340;SDS011;7770;52.158;5.372;2023-12-20T06:12:48;18.80;;;4.87;;
15340;SDS011;7770;52.158;5.372;2023-12-20T06:15:35;20.40;;;5.77;;
15340;SDS011;7770;52.158;5.372;2023-12-20T06:18:21;18.63;;;4.80;;
15340;SDS011;7770;52.158;5.372;2023-12-20T06:21:07;21.57;;;5.37;;
15340;SDS011;7770;52.158;5.372;2023-12-20T06:23:53;14.93;;;4.33;;
15340;SDS011;7770;52.158;5.372;2023-12-20T06:26:39;14.83;;;4.93;;
15340;SDS011;7770;52.158;5.372;2023-12-20T06:29:24;24.87;;;5.70;;
15340;SDS011;7770;52.158;5.372;2023-12-20T06:32:11;15.83;;;4.87;;
15340;SDS011;7770;52.158;5.372;2023-12-20T06:34:57;18.83;;;4.73;;
15340;SDS011;7770;52.158;5.372;2023-12-20T06:37:43;16.27;;;5.03;;
15340;SDS011;7770;52.158;5.372;2023-12-20T06:40:28;20.00;;;5.47;;
15340;SDS011;7770;52.158;5.372;2023-12-20T06:43:14;20.03;;;5.50;;
15340;SDS011;7770;52.158;5.372;2023-12-20T06:46:00;19.93;;;5.33;;
15340;SDS011;7770;52.158;5.372;2023-12-20T06:48:46;17.67;;;5.40;;
15340;SDS011;7770;52.158;5.372;2023-12-20T06:51:32;19.77;;;5.37;;
15340;SDS011;7770;52.158;5.372;2023-12-20T06:54:18;22.60;;;5.83;;
15340;SDS011;7770;52.158;5.372;2023-12-20T06:57:04;19.10;;;5.10;;
15340;SDS011;7770;52.158;5.372;2023-12-20T06:59:50;22.40;;;5.80;;
15340;SDS011;7770;52.158;5.372;2023-12-20T07:02:37;19.83;;;4.90;;
15340;SDS011;7770;52.158;5.372;2023-12-20T07:05:24;16.10;;;5.53;;
15340;SDS011;7770;52.158;5.372;2023-12-20T07:08:10;16.50;;;4.87;;
15340;SDS011;7770;52.158;5.372;2023-12-20T07:10:56;20.03;;;5.17;;
15340;SDS011;7770;52.158;5.372;2023-12-20T07:13:42;16.60;;;4.87;;
15340;SDS011;7770;52.158;5.372;2023-12-20T07:16:28;18.57;;;5.00;;
15340;SDS011;7770;52.158;5.372;2023-12-20T07:19:13;20.00;;;5.17;;
15340;SDS011;7770;52.158;5.372;2023-12-20T07:21:59;20.50;;;4.80;;
15340;SDS011;7770;52.158;5.372;2023-12-20T07:24:45;13.63;;;5.00;;
15340;SDS011;7770;52.158;5.372;2023-12-20T07:27:31;14.07;;;4.60;;
15340;SDS011;7770;52.158;5.372;2023-12-20T07:30:17;17.37;;;5.37;;
15340;SDS011;7770;52.158;5.372;2023-12-20T07:33:03;16.83;;;4.90;;
15340;SDS011;7770;52.158;5.372;2023-12-20T07:35:49;19.00;;;4.97;;
15340;SDS011;7770;52.158;5.372;2023-12-20T07:38:37;20.63;;;5.80;;
15340;SDS011;7770;52.158;5.372;2023-12-20T07:41:22;20.03;;;5.37;;
15340;SDS011;7770;52.158;5.372;2023-12-20T07:44:09;23.47;;;6.10;;
15340;SDS011;7770;52.158;5.372;2023-12-20T07:46:55;21.43;;;5.47;;
15340;SDS011;7770;52.158;5.372;2023-12-20T07:49:41;15.90;;;5.80;;
15340;SDS011;7770;52.158;5.372;2023-12-20T07:52:27;19.50;;;5.27;;
15340;SDS011;7770;52.158;5.372;2023-12-20T07:55:12;20.40;;;5.60;;
15340;SDS011;7770;52.158;5.372;2023-12-20T07:57:58;24.37;;;6.43;;
15340;SDS011;7770;52.158;5.372;2023-12-20T08:00:45;20.40;;;5.37;;
15340;SDS011;7770;52.158;5.372;2023-12-20T08:03:30;18.20;;;4.73;;
15340;SDS011;7770;52.158;5.372;2023-12-20T08:06:16;14.83;;;4.87;;
15340;SDS011;7770;52.158;5.372;2023-12-20T08:09:02;18.13;;;5.60;;
15340;SDS011;7770;52.158;5.372;2023-12-20T08:11:48;16.57;;;5.23;;
15340;SDS011;7770;52.158;5.372;2023-12-20T08:14:34;19.30;;;5.30;;
15340;SDS011;7770;52.158;5.372;2023-12-20T08:17:20;22.30;;;5.27;;
15340;SDS011;7770;52.158;5.372;2023-12-20T08:20:06;18.03;;;5.77;;
15340;SDS011;7770;52.158;5.372;2023-12-20T08:22:52;18.63;;;5.10;;
15340;SDS011;7770;52.158;5.372;2023-12-20T08:25:38;18.87;;;5.23;;
15340;SDS011;7770;52.158;5.372;2023-12-20T08:28:24;22.23;;;5.47;;
15340;SDS011;7770;52.158;5.372;2023-12-20T08:31:13;19.90;;;5.27;;
15340;SDS011;7770;52.158;5.372;2023-12-20T08:34:02;21.63;;;5.10;;
15340;SDS011;7770;52.158;5.372;2023-12-20T08:36:48;21.33;;;5.67;;
15340;SDS011;7770;52.158;5.372;2023-12-20T08:39:36;19.80;;;5.03;;
15340;SDS011;7770;52.158;5.372;2023-12-20T08:42:22;23.07;;;5.23;;
15340;SDS011;7770;52.158;5.372;2023-12-20T08:45:10;19.50;;;5.03;;
15340;SDS011;7770;52.158;5.372;2023-12-20T08:47:55;17.63;;;5.00;;
15340;SDS011;7770;52.158;5.372;2023-12-20T08:50:41;22.67;;;4.90;;
15340;SDS011;7770;52.158;5.372;2023-12-20T08:53:28;20.90;;;5.13;;
15340;SDS011;7770;52.158;5.372;2023-12-20T08:56:14;18.10;;;5.13;;
15340;SDS011;7770;52.158;5.372;2023-12-20T08:59:00;19.70;;;5.60;;
15340;SDS011;7770;52.158;5.372;2023-12-20T09:01:46;19.50;;;5.60;;
15340;SDS011;7770;52.158;5.372;2023-12-20T09:04:33;22.53;;;5.50;;
15340;SDS011;7770;52.158;5.372;2023-12-20T09:07:23;22.47;;;5.03;;
15340;SDS011;7770;52.158;5.372;2023-12-20T09:10:11;19.13;;;5.47;;
15340;SDS011;7770;52.158;5.372;2023-12-20T09:12:57;19.00;;;5.00;;
15340;SDS011;7770;52.158;5.372;2023-12-20T09:15:43;18.43;;;5.10;;
15340;SDS011;7770;52.158;5.372;2023-12-20T09:18:29;20.77;;;5.27;;
15340;SDS011;7770;52.158;5.372;2023-12-20T09:21:15;18.70;;;5.03;;
15340;SDS011;7770;52.158;5.372;2023-12-20T09:24:01;15.47;;;4.30;;
15340;SDS011;7770;52.158;5.372;2023-12-20T09:26:47;19.37;;;5.10;;
15340;SDS011;7770;52.158;5.372;2023-12-20T09:29:33;24.87;;;5.40;;
15340;SDS011;7770;52.158;5.372;2023-12-20T09:32:18;20.40;;;5.63;;
15340;SDS011;7770;52.158;5.372;2023-12-20T09:35:05;14.00;;;4.83;;
15340;SDS011;7770;52.158;5.372;2023-12-20T09:37:52;19.43;;;5.33;;
15340;SDS011;7770;52.158;5.372;2023-12-20T09:40:37;18.40;;;5.03;;
15340;SDS011;7770;52.158;5.372;2023-12-20T09:43:26;18.07;;;5.13;;
15340;SDS011;7770;52.158;5.372;2023-12-20T09:46:15;16.93;;;4.93;;
15340;SDS011;7770;52.158;5.372;2023-12-20T09:49:05;16.10;;;4.80;;
15340;SDS011;7770;52.158;5.372;2023-12-20T09:51:52;19.30;;;5.30;;
15340;SDS011;7770;52.158;5.372;2023-12-20T09:54:39;14.53;;;4.63;;
15340;SDS011;7770;52.158;5.372;2023-12-20T09:57:26;14.87;;;4.73;;
15340;SDS011;7770;52.158;5.372;2023-12-20T10:00:12;17.43;;;5.10;;
15340;SDS011;7770;52.158;5.372;2023-12-20T10:03:00;18.97;;;5.30;;
15340;SDS011;7770;52.158;5.372;2023-12-20T10:05:47;15.77;;;4.60;;
15340;SDS011;7770;52.158;5.372;2023-12-20T10:08:34;17.47;;;4.57;;
15340;SDS011;7770;52.158;5.372;2023-12-20T10:11:21;17.10;;;4.73;;
15340;SDS011;7770;52.158;5.372;2023-12-20T10:14:07;16.23;;;4.80;;
15340;SDS011;7770;52.158;5.372;2023-12-20T10:16:53;17.17;;;5.37;;
15340;SDS011;7770;52.158;5.372;2023-12-20T10:19:42;13.67;;;4.27;;
15340;SDS011;7770;52.158;5.372;2023-12-20T10:22:28;21.27;;;4.90;;
15340;SDS011;7770;52.158;5.372;2023-12-20T10:25:14;19.43;;;5.37;;
15340;SDS011;7770;52.158;5.372;2023-12-20T10:28:10;15.83;;;4.97;;
15340;SDS011;7770;52.158;5.372;2023-12-20T10:30:57;17.60;;;5.03;;
15340;SDS011;7770;52.158;5.372;2023-12-20T10:33:44;15.93;;;5.33;;
15340;SDS011;7770;52.158;5.372;2023-12-20T10:36:30;17.90;;;4.87;;
15340;SDS011;7770;52.158;5.372;2023-12-20T10:39:17;18.80;;;5.20;;
15340;SDS011;7770;52.158;5.372;2023-12-20T10:42:05;18.57;;;4.63;;
15340;SDS011;7770;52.158;5.372;2023-12-20T10:44:51;19.23;;;5.53;;
15340;SDS011;7770;52.158;5.372;2023-12-20T10:47:39;15.83;;;4.73;;
15340;SDS011;7770;52.158;5.372;2023-12-20T10:50:27;16.03;;;5.13;;
15340;SDS011;7770;52.158;5.372;2023-12-20T10:53:16;17.57;;;4.53;;
15340;SDS011;7770;52.158;5.372;2023-12-20T10:56:02;18.07;;;4.87;;
15340;SDS011;7770;52.158;5.372;2023-12-20T10:58:50;18.33;;;4.80;;
15340;SDS011;7770;52.158;5.372;2023-12-20T11:01:36;16.57;;;5.10;;
15340;SDS011;7770;52.158;5.372;2023-12-20T11:04:25;12.53;;;4.70;;
15340;SDS011;7770;52.158;5.372;2023-12-20T11:07:38;13.93;;;4.20;;
15340;SDS011;7770;52.158;5.372;2023-12-20T11:13:36;14.03;;;4.73;;
15340;SDS011;7770;52.158;5.372;2023-12-20T11:16:38;18.27;;;4.27;;
15340;SDS011;7770;52.158;5.372;2023-12-20T11:19:26;20.03;;;5.07;;
15340;SDS011;7770;52.158;5.372;2023-12-20T11:22:12;15.17;;;4.20;;
15340;SDS011;7770;52.158;5.372;2023-12-20T11:25:06;15.40;;;4.37;;
15340;SDS011;7770;52.158;5.372;2023-12-20T11:28:07;17.97;;;4.50;;
15340;SDS011;7770;52.158;5.372;2023-12-20T11:30:57;15.43;;;4.53;;
15340;SDS011;7770;52.158;5.372;2023-12-20T11:33:46;16.00;;;4.47;;
15340;SDS011;7770;52.158;5.372;2023-12-20T11:36:33;15.60;;;4.57;;
15340;SDS011;7770;52.158;5.372;2023-12-20T11:39:21;12.23;;;4.23;;
15340;SDS011;7770;52.158;5.372;2023-12-20T11:42:07;16.80;;;4.00;;
15340;SDS011;7770;52.158;5.372;2023-12-20T11:44:53;15.33;;;4.23;;
15340;SDS011;7770;52.158;5.372;2023-12-20T11:47:39;10.27;;;3.93;;
15340;SDS011;7770;52.158;5.372;2023-12-20T11:50:27;16.07;;;4.87;;
15340;SDS011;7770;52.158;5.372;2023-12-20T11:53:15;15.23;;;3.90;;
15340;SDS011;7770;52.158;5.372;2023-12-20T11:56:00;16.73;;;4.40;;
15340;SDS011;7770;52.158;5.372;2023-12-20T11:58:48;12.33;;;3.83;;
15340;SDS011;7770;52.158;5.372;2023-12-20T12:01:34;13.17;;;4.10;;
15340;SDS011;7770;52.158;5.372;2023-12-20T12:04:21;14.60;;;4.20;;
15340;SDS011;7770;52.158;5.372;2023-12-20T12:07:06;14.40;;;4.40;;
15340;SDS011;7770;52.158;5.372;2023-12-20T12:09:52;16.43;;;4.53;;
15340;SDS011;7770;52.158;5.372;2023-12-20T12:12:38;12.73;;;4.03;;
15340;SDS011;7770;52.158;5.372;2023-12-20T12:15:25;13.07;;;3.73;;
15340;SDS011;7770;52.158;5.372;2023-12-20T12:18:10;14.40;;;4.43;;
15340;SDS011;7770;52.158;5.372;2023-12-20T12:21:00;13.60;;;4.50;;
15340;SDS011;7770;52.158;5.372;2023-12-20T12:23:48;13.07;;;4.37;;
15340;SDS011;7770;52.158;5.372;2023-12-20T12:26:33;12.67;;;3.87;;
15340;SDS011;7770;52.158;5.372;2023-12-20T12:29:20;14.30;;;4.40;;
15340;SDS011;7770;52.158;5.372;2023-12-20T12:32:09;15.03;;;4.60;;
15340;SDS011;7770;52.158;5.372;2023-12-20T12:34:55;15.90;;;4.03;;
15340;SDS011;7770;52.158;5.372;2023-12-20T12:37:41;20.00;;;4.60;;
15340;SDS011;7770;52.158;5.372;2023-12-20T12:40:27;14.63;;;3.70;;
15340;SDS011;7770;52.158;5.372;2023-12-20T12:43:13;14.00;;;4.57;;
15340;SDS011;7770;52.158;5.372;2023-12-20T12:45:58;16.80;;;4.40;;
15340;SDS011;7770;52.158;5.372;2023-12-20T12:48:44;12.37;;;3.90;;
15340;SDS011;7770;52.158;5.372;2023-12-20T12:51:31;17.80;;;4.60;;
15340;SDS011;7770;52.158;5.372;2023-12-20T12:54:17;12.60;;;4.23;;
15340;SDS011;7770;52.158;5.372;2023-12-20T12:57:03;14.10;;;4.77;;
15340;SDS011;7770;52.158;5.372;2023-12-20T12:59:49;13.67;;;4.20;;
15340;SDS011;7770;52.158;5.372;2023-12-20T13:02:35;11.33;;;3.83;;
15340;SDS011;7770;52.158;5.372;2023-12-20T13:05:23;15.50;;;4.53;;
15340;SDS011;7770;52.158;5.372;2023-12-20T13:08:08;11.27;;;3.93;;
15340;SDS011;7770;52.158;5.372;2023-12-20T13:10:56;12.93;;;4.63;;
15340;SDS011;7770;52.158;5.372;2023-12-20T13:13:44;15.90;;;4.07;;
15340;SDS011;7770;52.158;5.372;2023-12-20T13:16:30;15.07;;;4.37;;
15340;SDS011;7770;52.158;5.372;2023-12-20T13:19:16;10.70;;;3.73;;
15340;SDS011;7770;52.158;5.372;2023-12-20T13:22:02;20.47;;;5.07;;
15340;SDS011;7770;52.158;5.372;2023-12-20T13:24:48;12.13;;;3.87;;
15340;SDS011;7770;52.158;5.372;2023-12-20T13:27:34;14.93;;;4.47;;
15340;SDS011;7770;52.158;5.372;2023-12-20T13:30:20;16.10;;;4.30;;
15340;SDS011;7770;52.158;5.372;2023-12-20T13:33:06;12.50;;;3.87;;
15340;SDS011;7770;52.158;5.372;2023-12-20T13:35:52;16.57;;;4.50;;
15340;SDS011;7770;52.158;5.372;2023-12-20T13:38:38;14.27;;;4.07;;
15340;SDS011;7770;52.158;5.372;2023-12-20T13:41:24;16.00;;;4.20;;
15340;SDS011;7770;52.158;5.372;2023-12-20T13:44:10;18.00;;;4.30;;
15340;SDS011;7770;52.158;5.372;2023-12-20T13:46:57;16.13;;;4.63;;
15340;SDS011;7770;52.158;5.372;2023-12-20T13:49:43;10.70;;;4.07;;
15340;SDS011;7770;52.158;5.372;2023-12-20T13:52:29;12.43;;;3.77;;
15340;SDS011;7770;52.158;5.372;2023-12-20T13:55:15;14.30;;;3.67;;
15340;SDS011;7770;52.158;5.372;2023-12-20T13:58:01;15.60;;;3.93;;
15340;SDS011;7770;52.158;5.372;2023-12-20T14:00:47;14.60;;;4.20;;
15340;SDS011;7770;52.158;5.372;2023-12-20T14:03:33;15.37;;;4.10;;
15340;SDS011;7770;52.158;5.372;2023-12-20T14:06:19;14.17;;;3.93;;
15340;SDS011;7770;52.158;5.372;2023-12-20T14:09:05;10.70;;;3.97;;
15340;SDS011;7770;52.158;5.372;2023-12-20T14:11:51;13.37;;;3.90;;
15340;SDS011;7770;52.158;5.372;2023-12-20T14:14:37;15.47;;;4.33;;
15340;SDS011;7770;52.158;5.372;2023-12-20T14:17:23;9.57;;;3.43;;
15340;SDS011;7770;52.158;5.372;2023-12-20T14:20:09;12.00;;;3.73;;
15340;SDS011;7770;52.158;5.372;2023-12-20T14:22:57;16.37;;;4.03;;
15340;SDS011;7770;52.158;5.372;2023-12-20T14:25:43;14.57;;;4.23;;
15340;SDS011;7770;52.158;5.372;2023-12-20T14:28:29;11.70;;;3.83;;
15340;SDS011;7770;52.158;5.372;2023-12-20T14:31:15;12.63;;;3.80;;
15340;SDS011;7770;52.158;5.372;2023-12-20T14:34:01;12.77;;;3.50;;
15340;SDS011;7770;52.158;5.372;2023-12-20T14:36:49;11.93;;;4.23;;
15340;SDS011;7770;52.158;5.372;2023-12-20T14:39:35;14.30;;;4.10;;
15340;SDS011;7770;52.158;5.372;2023-12-20T14:42:26;14.80;;;4.20;;
15340;SDS011;7770;52.158;5.372;2023-12-20T14:45:12;12.73;;;3.83;;
15340;SDS011;7770;52.158;5.372;2023-12-20T14:47:59;11.77;;;3.90;;
15340;SDS011;7770;52.158;5.372;2023-12-20T14:50:45;17.13;;;4.17;;
15340;SDS011;7770;52.158;5.372;2023-12-20T14:53:33;15.87;;;4.00;;
15340;SDS011;7770;52.158;5.372;2023-12-20T14:56:23;12.90;;;3.70;;
15340;SDS011;7770;52.158;5.372;2023-12-20T14:59:11;14.73;;;4.23;;
15340;SDS011;7770;52.158;5.372;2023-12-20T15:01:57;14.90;;;4.37;;
15340;SDS011;7770;52.158;5.372;2023-12-20T15:04:43;15.10;;;4.20;;
15340;SDS011;7770;52.158;5.372;2023-12-20T15:07:28;12.63;;;4.20;;
15340;SDS011;7770;52.158;5.372;2023-12-20T15:10:14;15.57;;;4.60;;
15340;SDS011;7770;52.158;5.372;2023-12-20T15:13:02;15.20;;;4.37;;
15340;SDS011;7770;52.158;5.372;2023-12-20T15:15:48;15.43;;;4.30;;
15340;SDS011;7770;52.158;5.372;2023-12-20T15:18:34;15.20;;;4.23;;
15340;SDS011;7770;52.158;5.372;2023-12-20T15:21:20;13.50;;;3.97;;
15340;SDS011;7770;52.158;5.372;2023-12-20T15:24:15;12.93;;;3.60;;
15340;SDS011;7770;52.158;5.372;2023-12-20T15:27:02;14.40;;;4.27;;
15340;SDS011;7770;52.158;5.372;2023-12-20T15:29:48;18.60;;;4.87;;
15340;SDS011;7770;52.158;5.372;2023-12-20T15:32:36;16.17;;;4.97;;
15340;SDS011;7770;52.158;5.372;2023-12-20T15:35:23;13.87;;;4.00;;
15340;SDS011;7770;52.158;5.372;2023-12-20T15:38:08;13.77;;;4.10;;
15340;SDS011;7770;52.158;5.372;2023-12-20T15:40:54;13.40;;;3.90;;
15340;SDS011;7770;52.158;5.372;2023-12-20T15:43:40;16.33;;;4.50;;
15340;SDS011;7770;52.158;5.372;2023-12-20T15:46:26;12.67;;;3.93;;
15340;SDS011;7770;52.158;5.372;2023-12-20T15:49:12;12.27;;;4.27;;
15340;SDS011;7770;52.158;5.372;2023-12-20T15:51:58;16.20;;;4.40;;
15340;SDS011;7770;52.158;5.372;2023-12-20T15:54:43;16.10;;;4.27;;
15340;SDS011;7770;52.158;5.372;2023-12-20T15:57:29;13.67;;;4.13;;
15340;SDS011;7770;52.158;5.372;2023-12-20T16:00:15;13.97;;;4.00;;
15340;SDS011;7770;52.158;5.372;2023-12-20T16:03:01;24.40;;;4.57;;
15340;SDS011;7770;52.158;5.372;2023-12-20T16:05:48;16.70;;;4.53;;
15340;SDS011;7770;52.158;5.372;2023-12-20T16:08:34;13.40;;;3.83;;
15340;SDS011;7770;52.158;5.372;2023-12-20T16:11:20;19.37;;;4.63;;
15340;SDS011;7770;52.158;5.372;2023-12-20T16:14:06;17.10;;;4.40;;
15340;SDS011;7770;52.158;5.372;2023-12-20T16:16:51;14.27;;;3.90;;
15340;SDS011;7770;52.158;5.372;2023-12-20T16:19:37;18.70;;;4.53;;
15340;SDS011;7770;52.158;5.372;2023-12-20T16:22:23;13.70;;;4.80;;
15340;SDS011;7770;52.158;5.372;2023-12-20T16:25:09;13.63;;;4.07;;
15340;SDS011;7770;52.158;5.372;2023-12-20T16:27:56;18.03;;;5.03;;
15340;SDS011;7770;52.158;5.372;2023-12-20T16:30:42;13.90;;;4.27;;
15340;SDS011;7770;52.158;5.372;2023-12-20T16:33:27;20.70;;;4.47;;
15340;SDS011;7770;52.158;5.372;2023-12-20T16:36:13;17.47;;;4.87;;
15340;SDS011;7770;52.158;5.372;2023-12-20T16:38:59;13.93;;;4.33;;
15340;SDS011;7770;52.158;5.372;2023-12-20T16:41:45;16.00;;;5.40;;
15340;SDS011;7770;52.158;5.372;2023-12-20T16:44:31;19.30;;;6.10;;
15340;SDS011;7770;52.158;5.372;2023-12-20T16:47:17;17.20;;;4.63;;
15340;SDS011;7770;52.158;5.372;2023-12-20T16:50:03;12.90;;;4.83;;